createdAt,value
2018-03-02T00:00:51.416Z,98
2018-03-02T00:01:54.395Z,98
2018-03-02T00:02:56.802Z,98
2018-03-02T00:03:59.215Z,98
2018-03-02T00:05:01.635Z,98
2018-03-02T00:06:04.039Z,98
2018-03-02T00:07:06.438Z,98
2018-03-02T00:08:09.430Z,98
2018-03-02T00:09:12.147Z,98
2018-03-02T00:10:14.560Z,98
2018-03-02T00:11:16.983Z,98
2018-03-02T00:12:19.674Z,98
2018-03-02T00:13:22.085Z,98
2018-03-02T00:14:24.805Z,98
2018-03-02T00:15:27.204Z,98
2018-03-02T00:16:29.615Z,98
2018-03-02T00:17:32.025Z,98
2018-03-02T00:18:34.430Z,98
2018-03-02T00:19:37.132Z,98
2018-03-02T00:20:39.824Z,98
2018-03-02T00:21:42.515Z,98
2018-03-02T00:22:45.209Z,98
2018-03-02T00:23:47.609Z,98
2018-03-02T00:24:50.296Z,98
2018-03-02T00:25:52.706Z,98
2018-03-02T00:26:55.395Z,98
2018-03-02T00:27:57.808Z,98
2018-03-02T00:29:00.522Z,98
2018-03-02T00:30:02.936Z,98
2018-03-02T00:31:05.339Z,98
2018-03-02T00:32:08.040Z,98
2018-03-02T00:33:10.451Z,99
2018-03-02T00:34:12.863Z,99
2018-03-02T00:35:15.269Z,99
2018-03-02T00:36:17.680Z,99
2018-03-02T00:37:20.400Z,99
2018-03-02T00:38:22.791Z,99
2018-03-02T00:39:25.250Z,99
2018-03-02T00:40:28.201Z,99
2018-03-02T00:41:30.603Z,99
2018-03-02T00:42:33.024Z,99
2018-03-02T00:43:35.712Z,99
2018-03-02T00:44:38.404Z,99
2018-03-02T00:45:40.819Z,99
2018-03-02T00:46:43.225Z,99
2018-03-02T00:47:45.628Z,99
2018-03-02T00:48:48.044Z,99
2018-03-02T00:49:50.455Z,99
2018-03-02T00:50:52.856Z,99
2018-03-02T00:51:55.260Z,99
2018-03-02T00:52:57.956Z,99
2018-03-02T00:54:00.367Z,99
2018-03-02T00:55:03.073Z,99
2018-03-02T00:56:05.482Z,99
2018-03-02T00:57:08.215Z,99
2018-03-02T00:58:10.626Z,99
2018-03-02T00:59:13.045Z,99
2018-03-02T01:00:15.449Z,99
2018-03-02T01:01:17.848Z,99
2018-03-02T01:02:20.266Z,99
2018-03-02T01:03:22.955Z,99
2018-03-02T01:04:25.664Z,99
2018-03-02T01:05:28.083Z,100
2018-03-02T01:06:30.489Z,100
2018-03-02T01:07:32.894Z,100
2018-03-02T01:08:35.603Z,100
2018-03-02T01:09:38.002Z,100
2018-03-02T01:10:40.406Z,100
2018-03-02T01:11:43.156Z,100
2018-03-02T01:12:45.504Z,100
2018-03-02T01:13:47.922Z,100
2018-03-02T01:14:50.328Z,100
2018-03-02T01:15:53.016Z,100
2018-03-02T01:16:55.420Z,100
2018-03-02T01:17:57.825Z,100
2018-03-02T01:19:00.227Z,100
2018-03-02T01:20:02.629Z,100
2018-03-02T01:21:05.041Z,100
2018-03-02T01:22:07.736Z,100
2018-03-02T01:23:10.126Z,100
2018-03-02T01:24:12.540Z,100
2018-03-02T01:25:14.954Z,100
2018-03-02T01:26:17.366Z,100
2018-03-02T01:27:19.772Z,100
2018-03-02T01:28:22.453Z,100
2018-03-02T01:29:24.856Z,100
2018-03-02T01:30:27.269Z,100
2018-03-02T01:31:29.670Z,100
2018-03-02T01:32:32.636Z,100
2018-03-02T01:33:35.042Z,100
2018-03-02T01:34:37.444Z,100
2018-03-02T01:35:39.849Z,100
2018-03-02T01:36:42.251Z,100
2018-03-02T01:37:44.657Z,100
2018-03-02T01:38:47.060Z,100
2018-03-02T01:39:49.761Z,100
2018-03-02T01:40:52.167Z,100
2018-03-02T01:41:54.571Z,100
2018-03-02T01:42:57.553Z,100
2018-03-02T01:43:59.959Z,100
2018-03-02T01:45:02.372Z,99
2018-03-02T01:46:05.060Z,99
2018-03-02T01:47:07.737Z,99
2018-03-02T01:48:10.143Z,99
2018-03-02T01:49:12.532Z,99
2018-03-02T01:50:14.939Z,99
2018-03-02T01:51:17.348Z,99
2018-03-02T01:52:20.036Z,99
2018-03-02T01:53:22.734Z,99
2018-03-02T01:54:25.132Z,99
2018-03-02T01:55:27.536Z,99
2018-03-02T01:56:29.956Z,99
2018-03-02T01:57:32.349Z,99
2018-03-02T01:58:34.744Z,99
2018-03-02T01:59:37.147Z,99
2018-03-02T02:00:39.548Z,99
2018-03-02T02:01:41.957Z,99
2018-03-02T02:02:44.373Z,99
2018-03-02T02:03:46.759Z,99
2018-03-02T02:04:49.166Z,99
2018-03-02T02:05:52.149Z,99
2018-03-02T02:06:54.548Z,99
2018-03-02T02:07:56.953Z,99
2018-03-02T02:08:59.361Z,99
2018-03-02T02:10:02.040Z,99
2018-03-02T02:11:04.453Z,99
2018-03-02T02:12:06.866Z,99
2018-03-02T02:13:09.548Z,99
2018-03-02T02:14:11.960Z,99
2018-03-02T02:15:14.670Z,99
2018-03-02T02:16:17.351Z,99
2018-03-02T02:17:19.747Z,99
2018-03-02T02:18:22.152Z,99
2018-03-02T02:19:24.842Z,99
2018-03-02T02:20:27.235Z,98
2018-03-02T02:21:29.648Z,99
2018-03-02T02:22:32.337Z,99
2018-03-02T02:23:34.746Z,99
2018-03-02T02:24:37.140Z,99
2018-03-02T02:25:39.548Z,99
2018-03-02T02:26:41.944Z,99
2018-03-02T02:27:44.349Z,99
2018-03-02T02:28:46.746Z,99
2018-03-02T02:29:49.149Z,99
2018-03-02T02:30:52.127Z,99
2018-03-02T02:31:54.536Z,99
2018-03-02T02:32:57.513Z,99
2018-03-02T02:34:00.232Z,99
2018-03-02T02:35:02.624Z,99
2018-03-02T02:36:05.630Z,99
2018-03-02T02:37:08.028Z,99
2018-03-02T02:38:10.434Z,99
2018-03-02T02:39:12.836Z,99
2018-03-02T02:40:15.245Z,99
2018-03-02T02:41:17.647Z,99
2018-03-02T02:42:20.330Z,98
2018-03-02T02:43:22.734Z,98
2018-03-02T02:44:25.137Z,98
2018-03-02T02:45:27.531Z,98
2018-03-02T02:46:29.943Z,98
2018-03-02T02:47:32.644Z,98
2018-03-02T02:48:35.044Z,98
2018-03-02T02:49:37.453Z,98
2018-03-02T02:50:39.856Z,98
2018-03-02T02:51:42.257Z,98
2018-03-02T02:52:45.547Z,98
2018-03-02T02:53:48.288Z,98
2018-03-02T02:54:50.677Z,98
2018-03-02T02:55:53.090Z,98
2018-03-02T02:56:55.488Z,98
2018-03-02T02:57:57.884Z,98
2018-03-02T02:59:00.566Z,98
2018-03-02T03:00:02.975Z,98
2018-03-02T03:01:05.372Z,98
2018-03-02T03:02:08.376Z,98
2018-03-02T03:03:10.774Z,98
2018-03-02T03:04:13.174Z,97
2018-03-02T03:05:15.867Z,98
2018-03-02T03:06:18.564Z,97
2018-03-02T03:07:20.967Z,98
2018-03-02T03:08:23.664Z,98
2018-03-02T03:09:26.344Z,98
2018-03-02T03:10:28.749Z,98
2018-03-02T03:11:31.435Z,97
2018-03-02T03:12:34.121Z,98
2018-03-02T03:13:36.519Z,98
2018-03-02T03:14:38.923Z,98
2018-03-02T03:15:41.613Z,98
2018-03-02T03:16:44.018Z,98
2018-03-02T03:17:46.415Z,98
2018-03-02T03:18:48.824Z,98
2018-03-02T03:19:51.223Z,98
2018-03-02T03:20:53.913Z,98
2018-03-02T03:21:56.316Z,98
2018-03-02T03:22:58.719Z,98
2018-03-02T03:24:01.115Z,98
2018-03-02T03:25:03.522Z,98
2018-03-02T03:26:05.922Z,98
2018-03-02T03:27:08.900Z,98
2018-03-02T03:28:11.592Z,98
2018-03-02T03:29:14.284Z,98
2018-03-02T03:30:16.682Z,98
2018-03-02T03:31:19.089Z,98
2018-03-02T03:32:21.492Z,97
2018-03-02T03:33:23.902Z,97
2018-03-02T03:34:26.286Z,97
2018-03-02T03:35:28.695Z,97
2018-03-02T03:36:31.097Z,97
2018-03-02T03:37:33.781Z,97
2018-03-02T03:38:36.182Z,97
2018-03-02T03:39:38.582Z,97
2018-03-02T03:40:40.978Z,97
2018-03-02T03:41:43.387Z,97
2018-03-02T03:42:45.779Z,97
2018-03-02T03:43:48.177Z,97
2018-03-02T03:44:50.582Z,97
2018-03-02T03:45:52.990Z,97
2018-03-02T03:46:55.397Z,97
2018-03-02T03:47:57.800Z,97
2018-03-02T03:49:00.485Z,97
2018-03-02T03:50:02.888Z,98
2018-03-02T03:51:05.283Z,98
2018-03-02T03:52:07.968Z,98
2018-03-02T03:53:10.378Z,98
2018-03-02T03:54:12.778Z,98
2018-03-02T03:55:15.175Z,98
2018-03-02T03:56:17.582Z,98
2018-03-02T03:57:19.980Z,98
2018-03-02T03:58:22.390Z,98
2018-03-02T03:59:24.788Z,98
2018-03-02T04:00:27.174Z,99
2018-03-02T04:01:29.882Z,99
2018-03-02T04:02:32.272Z,99
2018-03-02T04:03:34.679Z,99
2018-03-02T04:04:37.364Z,98
2018-03-02T04:05:39.770Z,99
2018-03-02T04:06:42.166Z,99
2018-03-02T04:07:44.576Z,99
2018-03-02T04:08:46.966Z,99
2018-03-02T04:09:49.370Z,99
2018-03-02T04:10:52.058Z,98
2018-03-02T04:11:54.458Z,98
2018-03-02T04:12:56.856Z,98
2018-03-02T04:13:59.261Z,98
2018-03-02T04:15:01.656Z,98
2018-03-02T04:16:04.055Z,98
2018-03-02T04:17:06.456Z,98
2018-03-02T04:18:08.857Z,98
2018-03-02T04:19:11.249Z,98
2018-03-02T04:20:13.645Z,98
2018-03-02T04:21:16.045Z,98
2018-03-02T04:22:18.446Z,97
2018-03-02T04:23:20.860Z,97
2018-03-02T04:24:23.248Z,97
2018-03-02T04:25:25.649Z,97
2018-03-02T04:26:28.059Z,97
2018-03-02T04:27:30.456Z,96
2018-03-02T04:28:32.859Z,96
2018-03-02T04:29:35.541Z,97
2018-03-02T04:30:37.939Z,97
2018-03-02T04:31:40.622Z,97
2018-03-02T04:32:43.021Z,97
2018-03-02T04:33:45.416Z,97
2018-03-02T04:34:48.103Z,97
2018-03-02T04:35:50.515Z,96
2018-03-02T04:36:52.911Z,96
2018-03-02T04:37:55.307Z,96
2018-03-02T04:38:57.706Z,96
2018-03-02T04:40:00.115Z,97
2018-03-02T04:41:02.516Z,97
2018-03-02T04:42:04.917Z,97
2018-03-02T04:43:07.308Z,97
2018-03-02T04:44:09.706Z,97
2018-03-02T04:45:12.111Z,96
2018-03-02T04:46:14.509Z,96
2018-03-02T04:47:16.904Z,96
2018-03-02T04:48:19.315Z,97
2018-03-02T04:49:21.996Z,97
2018-03-02T04:50:24.400Z,96
2018-03-02T04:51:26.811Z,96
2018-03-02T04:52:29.496Z,96
2018-03-02T04:53:32.196Z,96
2018-03-02T04:54:34.595Z,96
2018-03-02T04:55:36.989Z,96
2018-03-02T04:56:39.390Z,97
2018-03-02T04:57:42.091Z,97
2018-03-02T04:58:44.482Z,97
2018-03-02T04:59:46.882Z,97
2018-03-02T05:00:49.296Z,97
2018-03-02T05:01:51.970Z,97
2018-03-02T05:02:54.369Z,97
2018-03-02T05:03:56.775Z,97
2018-03-02T05:04:59.187Z,97
2018-03-02T05:06:01.590Z,97
2018-03-02T05:07:03.995Z,97
2018-03-02T05:08:06.397Z,97
2018-03-02T05:09:08.807Z,97
2018-03-02T05:10:11.213Z,97
2018-03-02T05:11:13.593Z,97
2018-03-02T05:12:15.990Z,97
2018-03-02T05:13:18.676Z,97
2018-03-02T05:14:21.084Z,97
2018-03-02T05:15:23.483Z,97
2018-03-02T05:16:25.891Z,97
2018-03-02T05:17:28.863Z,96
2018-03-02T05:18:31.543Z,96
2018-03-02T05:19:33.952Z,97
2018-03-02T05:20:36.361Z,96
2018-03-02T05:21:39.064Z,96
2018-03-02T05:22:41.476Z,96
2018-03-02T05:23:44.144Z,96
2018-03-02T05:24:46.544Z,96
2018-03-02T05:25:49.246Z,96
2018-03-02T05:26:51.960Z,96
2018-03-02T05:27:54.359Z,96
2018-03-02T05:28:56.773Z,96
2018-03-02T05:29:59.173Z,95
2018-03-02T05:31:01.867Z,95
2018-03-02T05:32:04.572Z,95
2018-03-02T05:33:07.810Z,95
2018-03-02T05:34:10.220Z,95
2018-03-02T05:35:12.620Z,95
2018-03-02T05:36:15.027Z,95
2018-03-02T05:37:17.427Z,95
2018-03-02T05:38:20.119Z,95
2018-03-02T05:39:22.808Z,95
2018-03-02T05:40:25.225Z,95
2018-03-02T05:41:27.613Z,95
2018-03-02T05:42:30.013Z,95
2018-03-02T05:43:32.415Z,95
2018-03-02T05:44:34.823Z,95
2018-03-02T05:45:37.507Z,95
2018-03-02T05:46:39.935Z,95
2018-03-02T05:47:42.317Z,95
2018-03-02T05:48:45.009Z,95
2018-03-02T05:49:47.414Z,95
2018-03-02T05:50:49.816Z,95
2018-03-02T05:51:52.221Z,95
2018-03-02T05:52:54.616Z,95
2018-03-02T05:53:57.008Z,95
2018-03-02T05:54:59.416Z,95
2018-03-02T05:56:01.813Z,95
2018-03-02T05:57:04.489Z,95
2018-03-02T05:58:06.894Z,96
2018-03-02T05:59:09.609Z,96
2018-03-02T06:00:12.045Z,96
2018-03-02T06:01:14.737Z,96
2018-03-02T06:02:17.133Z,96
2018-03-02T06:03:19.539Z,95
2018-03-02T06:04:21.939Z,95
2018-03-02T06:05:24.344Z,96
2018-03-02T06:06:27.020Z,96
2018-03-02T06:07:29.730Z,96
2018-03-02T06:08:32.125Z,96
2018-03-02T06:09:34.534Z,96
2018-03-02T06:10:37.506Z,96
2018-03-02T06:11:39.910Z,96
2018-03-02T06:12:42.318Z,96
2018-03-02T06:13:44.728Z,96
2018-03-02T06:14:47.130Z,96
2018-03-02T06:15:49.526Z,96
2018-03-02T06:16:51.934Z,96
2018-03-02T06:17:54.328Z,96
2018-03-02T06:18:56.727Z,96
2018-03-02T06:19:59.129Z,96
2018-03-02T06:21:01.842Z,96
2018-03-02T06:22:04.222Z,96
2018-03-02T06:23:06.631Z,96
2018-03-02T06:24:09.032Z,96
2018-03-02T06:25:11.435Z,96
2018-03-02T06:26:14.123Z,96
2018-03-02T06:27:16.812Z,96
2018-03-02T06:28:19.203Z,96
2018-03-02T06:29:21.919Z,96
2018-03-02T06:30:24.599Z,96
2018-03-02T06:31:27.298Z,96
2018-03-02T06:32:29.699Z,96
2018-03-02T06:33:32.096Z,96
2018-03-02T06:34:34.490Z,96
2018-03-02T06:35:36.892Z,97
2018-03-02T06:36:39.284Z,96
2018-03-02T06:37:41.689Z,96
2018-03-02T06:38:44.365Z,96
2018-03-02T06:39:46.763Z,96
2018-03-02T06:40:49.166Z,96
2018-03-02T06:41:51.578Z,96
2018-03-02T06:42:53.978Z,96
2018-03-02T06:43:56.375Z,96
2018-03-02T06:44:58.788Z,96
2018-03-02T06:46:01.472Z,96
2018-03-02T06:47:03.855Z,95
2018-03-02T06:48:06.259Z,95
2018-03-02T06:49:08.940Z,96
2018-03-02T06:50:11.340Z,96
2018-03-02T06:51:13.742Z,96
2018-03-02T06:52:16.147Z,95
2018-03-02T06:53:18.550Z,95
2018-03-02T06:54:20.962Z,94
2018-03-02T06:55:23.361Z,94
2018-03-02T06:56:25.759Z,94
2018-03-02T06:57:28.155Z,94
2018-03-02T06:58:30.559Z,94
2018-03-02T06:59:32.954Z,94
2018-03-02T07:00:35.357Z,94
2018-03-02T07:01:37.752Z,94
2018-03-02T07:02:40.444Z,94
2018-03-02T07:03:42.838Z,93
2018-03-02T07:04:45.246Z,93
2018-03-02T07:05:47.917Z,93
2018-03-02T07:06:50.324Z,93
2018-03-02T07:07:52.717Z,93
2018-03-02T07:08:55.109Z,93
2018-03-02T07:09:57.516Z,93
2018-03-02T07:10:59.912Z,93
2018-03-02T07:12:02.312Z,93
2018-03-02T07:13:04.727Z,93
2018-03-02T07:14:07.719Z,93
2018-03-02T07:15:10.185Z,93
2018-03-02T07:16:13.430Z,93
2018-03-02T07:17:17.143Z,92
2018-03-02T07:18:19.499Z,92
2018-03-02T07:19:21.903Z,92
2018-03-02T07:20:24.312Z,92
2018-03-02T07:21:26.717Z,91
2018-03-02T07:22:29.122Z,91
2018-03-02T07:23:31.530Z,91
2018-03-02T07:24:33.931Z,91
2018-03-02T07:25:36.331Z,90
2018-03-02T07:26:38.724Z,90
2018-03-02T07:27:41.417Z,90
2018-03-02T07:28:43.818Z,90
2018-03-02T07:29:46.212Z,90
2018-03-02T07:30:48.609Z,89
2018-03-02T07:31:51.017Z,89
2018-03-02T07:32:53.418Z,88
2018-03-02T07:33:55.818Z,88
2018-03-02T07:34:58.228Z,88
2018-03-02T07:36:00.628Z,88
2018-03-02T07:37:03.051Z,87
2018-03-02T07:38:05.742Z,87
2018-03-02T07:39:08.420Z,87
2018-03-02T07:40:10.821Z,86
2018-03-02T07:41:13.237Z,84
2018-03-02T07:42:15.919Z,84
2018-03-02T07:43:18.312Z,83
2018-03-02T07:44:21.050Z,82
2018-03-02T07:45:23.757Z,82
2018-03-02T07:46:26.155Z,82
2018-03-02T07:47:28.557Z,82
2018-03-02T07:48:30.967Z,82
2018-03-02T07:49:33.364Z,81
2018-03-02T07:50:35.765Z,82
2018-03-02T07:51:38.171Z,81
2018-03-02T07:52:40.568Z,80
2018-03-02T07:53:42.979Z,80
2018-03-02T07:54:45.385Z,79
2018-03-02T07:55:47.782Z,78
2018-03-02T07:56:50.191Z,77
2018-03-02T07:57:52.592Z,77
2018-03-02T07:58:55.002Z,78
2018-03-02T07:59:57.695Z,78
2018-03-02T08:01:00.383Z,77
2018-03-02T08:02:02.782Z,76
2018-03-02T08:03:05.210Z,76
2018-03-02T08:04:07.612Z,76
2018-03-02T08:05:10.007Z,75
2018-03-02T08:06:12.412Z,75
2018-03-02T08:07:14.819Z,75
2018-03-02T08:08:17.224Z,75
2018-03-02T08:09:19.634Z,74
2018-03-02T08:10:22.034Z,74
2018-03-02T08:11:24.444Z,74
2018-03-02T08:12:26.862Z,74
2018-03-02T08:13:29.269Z,73
2018-03-02T08:14:31.683Z,72
2018-03-02T08:15:34.084Z,72
2018-03-02T08:16:36.493Z,71
2018-03-02T08:17:38.895Z,71
2018-03-02T08:18:41.299Z,70
2018-03-02T08:19:43.723Z,69
2018-03-02T08:20:46.132Z,68
2018-03-02T08:21:48.539Z,68
2018-03-02T08:22:51.237Z,67
2018-03-02T08:23:53.649Z,67
2018-03-02T08:24:56.070Z,67
2018-03-02T08:25:58.496Z,67
2018-03-02T08:27:00.875Z,66
2018-03-02T08:28:03.293Z,66
2018-03-02T08:29:05.692Z,66
2018-03-02T08:30:08.107Z,66
2018-03-02T08:31:10.813Z,66
2018-03-02T08:32:13.519Z,66
2018-03-02T08:33:15.926Z,67
2018-03-02T08:34:18.341Z,66
2018-03-02T08:35:20.746Z,65
2018-03-02T08:36:23.170Z,65
2018-03-02T08:37:25.579Z,64
2018-03-02T08:38:27.994Z,64
2018-03-02T08:39:30.713Z,63
2018-03-02T08:40:33.229Z,62
2018-03-02T08:41:37.206Z,62
2018-03-02T08:42:42.460Z,61
2018-03-02T08:43:46.971Z,62
2018-03-02T08:44:49.379Z,62
2018-03-02T08:45:52.073Z,62
2018-03-02T08:46:54.488Z,63
2018-03-02T08:47:56.904Z,62
2018-03-02T08:48:59.320Z,62
2018-03-02T08:50:01.751Z,62
2018-03-02T08:51:04.158Z,61
2018-03-02T08:52:07.144Z,61
2018-03-02T08:53:10.141Z,61
2018-03-02T08:54:12.557Z,61
2018-03-02T08:55:14.971Z,61
2018-03-02T08:56:17.384Z,61
2018-03-02T08:57:19.789Z,60
2018-03-02T08:58:22.199Z,60
2018-03-02T08:59:24.613Z,61
2018-03-02T09:00:27.019Z,61
2018-03-02T09:01:29.720Z,61
2018-03-02T09:02:32.138Z,62
2018-03-02T09:03:34.559Z,62
2018-03-02T09:04:36.970Z,61
2018-03-02T09:05:39.385Z,62
2018-03-02T09:06:41.804Z,62
2018-03-02T09:07:44.502Z,62
2018-03-02T09:08:46.908Z,62
2018-03-02T09:09:49.324Z,61
2018-03-02T09:10:52.043Z,60
2018-03-02T09:11:54.459Z,61
2018-03-02T09:12:56.866Z,60
2018-03-02T09:13:59.277Z,60
2018-03-02T09:15:01.701Z,61
2018-03-02T09:16:04.401Z,60
2018-03-02T09:17:07.088Z,61
2018-03-02T09:18:09.514Z,61
2018-03-02T09:19:12.244Z,60
2018-03-02T09:20:14.661Z,59
2018-03-02T09:21:17.078Z,59
2018-03-02T09:22:19.490Z,60
2018-03-02T09:23:21.908Z,60
2018-03-02T09:24:24.341Z,60
2018-03-02T09:25:26.750Z,59
2018-03-02T09:26:29.164Z,59
2018-03-02T09:27:31.593Z,59
2018-03-02T09:28:33.993Z,59
2018-03-02T09:29:36.410Z,59
2018-03-02T09:30:38.828Z,59
2018-03-02T09:31:41.249Z,59
2018-03-02T09:32:43.662Z,59
2018-03-02T09:33:46.082Z,59
2018-03-02T09:34:48.794Z,59
2018-03-02T09:35:51.823Z,58
2018-03-02T09:36:54.525Z,58
2018-03-02T09:37:57.228Z,58
2018-03-02T09:38:59.647Z,58
2018-03-02T09:40:02.065Z,58
2018-03-02T09:41:04.486Z,58
2018-03-02T09:42:06.900Z,57
2018-03-02T09:43:09.305Z,57
2018-03-02T09:44:11.729Z,57
2018-03-02T09:45:14.146Z,57
2018-03-02T09:46:16.568Z,57
2018-03-02T09:47:18.988Z,56
2018-03-02T09:48:21.700Z,56
2018-03-02T09:49:24.110Z,57
2018-03-02T09:50:26.530Z,57
2018-03-02T09:51:29.245Z,56
2018-03-02T09:52:31.664Z,57
2018-03-02T09:53:34.075Z,57
2018-03-02T09:54:36.500Z,57
2018-03-02T09:55:38.915Z,57
2018-03-02T09:56:41.946Z,57
2018-03-02T09:57:44.364Z,56
2018-03-02T09:58:46.790Z,56
2018-03-02T09:59:49.204Z,56
2018-03-02T10:00:51.633Z,56
2018-03-02T10:01:54.043Z,56
2018-03-02T10:02:56.471Z,55
2018-03-02T10:03:58.882Z,55
2018-03-02T10:05:01.585Z,56
2018-03-02T10:06:04.003Z,55
2018-03-02T10:07:06.418Z,55
2018-03-02T10:08:08.825Z,56
2018-03-02T10:09:11.258Z,56
2018-03-02T10:10:13.695Z,55
2018-03-02T10:11:16.088Z,55
2018-03-02T10:12:18.506Z,56
2018-03-02T10:13:20.938Z,56
2018-03-02T10:14:23.342Z,55
2018-03-02T10:15:25.774Z,55
2018-03-02T10:16:28.497Z,54
2018-03-02T10:17:30.916Z,53
2018-03-02T10:18:33.337Z,52
2018-03-02T10:19:36.041Z,53
2018-03-02T10:20:38.741Z,53
2018-03-02T10:21:41.183Z,53
2018-03-02T10:22:43.598Z,54
2018-03-02T10:23:46.016Z,54
2018-03-02T10:24:48.437Z,53
2018-03-02T10:25:50.868Z,54
2018-03-02T10:26:53.280Z,53
2018-03-02T10:27:55.992Z,53
2018-03-02T10:28:58.419Z,54
2018-03-02T10:30:00.851Z,53
2018-03-02T10:31:03.268Z,54
2018-03-02T10:32:05.974Z,54
2018-03-02T10:33:08.385Z,53
2018-03-02T10:34:10.809Z,53
2018-03-02T10:35:13.235Z,53
2018-03-02T10:36:15.646Z,52
2018-03-02T10:37:18.343Z,53
2018-03-02T10:38:20.775Z,54
2018-03-02T10:39:23.191Z,52
2018-03-02T10:40:25.630Z,52
2018-03-02T10:41:28.330Z,51
2018-03-02T10:42:31.032Z,51
2018-03-02T10:43:33.453Z,52
2018-03-02T10:44:36.164Z,51
2018-03-02T10:45:38.574Z,51
2018-03-02T10:46:41.310Z,52
2018-03-02T10:47:43.742Z,51
2018-03-02T10:48:46.147Z,52
2018-03-02T10:49:48.579Z,53
2018-03-02T10:50:51.002Z,53
2018-03-02T10:51:53.419Z,53
2018-03-02T10:52:55.853Z,53
2018-03-02T10:53:58.280Z,53
2018-03-02T10:55:00.698Z,53
2018-03-02T10:56:03.703Z,53
2018-03-02T10:57:06.116Z,54
2018-03-02T10:58:08.547Z,54
2018-03-02T10:59:11.331Z,54
2018-03-02T11:00:13.768Z,52
2018-03-02T11:01:16.185Z,52
2018-03-02T11:02:18.893Z,51
2018-03-02T11:03:21.598Z,51
2018-03-02T11:04:24.326Z,52
2018-03-02T11:05:26.742Z,53
2018-03-02T11:06:29.144Z,52
2018-03-02T11:07:32.487Z,53
2018-03-02T11:08:34.918Z,53
2018-03-02T11:09:37.339Z,53
2018-03-02T11:10:39.759Z,53
2018-03-02T11:11:42.481Z,52
2018-03-02T11:12:44.898Z,53
2018-03-02T11:13:47.304Z,52
2018-03-02T11:14:49.722Z,52
2018-03-02T11:15:52.144Z,53
2018-03-02T11:16:54.569Z,52
2018-03-02T11:17:56.987Z,53
2018-03-02T11:18:59.698Z,52
2018-03-02T11:20:02.121Z,53
2018-03-02T11:21:04.558Z,52
2018-03-02T11:22:06.974Z,51
2018-03-02T11:23:09.676Z,51
2018-03-02T11:24:12.097Z,50
2018-03-02T11:25:14.519Z,50
2018-03-02T11:26:16.932Z,50
2018-03-02T11:27:19.362Z,51
2018-03-02T11:28:21.774Z,51
2018-03-02T11:29:24.193Z,51
2018-03-02T11:30:26.610Z,51
2018-03-02T11:31:29.323Z,51
2018-03-02T11:32:31.740Z,51
2018-03-02T11:33:34.170Z,52
2018-03-02T11:34:36.581Z,52
2018-03-02T11:35:39.013Z,52
2018-03-02T11:36:41.782Z,51
2018-03-02T11:37:44.196Z,51
2018-03-02T11:38:46.614Z,50
2018-03-02T11:39:49.335Z,49
2018-03-02T11:40:51.750Z,50
2018-03-02T11:41:54.155Z,51
2018-03-02T11:42:56.573Z,50
2018-03-02T11:43:58.994Z,50
2018-03-02T11:45:01.424Z,50
2018-03-02T11:46:03.847Z,50
2018-03-02T11:47:06.277Z,50
2018-03-02T11:48:08.690Z,51
2018-03-02T11:49:11.119Z,51
2018-03-02T11:50:13.535Z,50
2018-03-02T11:51:16.624Z,49
2018-03-02T11:52:19.249Z,50
2018-03-02T11:53:21.999Z,49
2018-03-02T11:54:24.460Z,50
2018-03-02T11:55:26.884Z,49
2018-03-02T11:56:29.296Z,49
2018-03-02T11:57:31.716Z,49
2018-03-02T11:58:34.141Z,49
2018-03-02T11:59:36.555Z,48
2018-03-02T12:00:38.969Z,48
2018-03-02T12:01:41.681Z,49
2018-03-02T12:02:44.100Z,48
2018-03-02T12:03:46.541Z,48
2018-03-02T12:04:49.242Z,48
2018-03-02T12:05:51.660Z,48
2018-03-02T12:06:54.085Z,47
2018-03-02T12:07:56.503Z,48
2018-03-02T12:08:58.923Z,48
2018-03-02T12:10:01.343Z,48
2018-03-02T12:11:03.769Z,49
2018-03-02T12:12:06.189Z,49
2018-03-02T12:13:08.595Z,49
2018-03-02T12:14:11.034Z,49
2018-03-02T12:15:13.457Z,51
2018-03-02T12:16:15.886Z,49
2018-03-02T12:17:18.307Z,50
2018-03-02T12:18:20.721Z,50
2018-03-02T12:19:23.430Z,49
2018-03-02T12:20:25.863Z,49
2018-03-02T12:21:28.273Z,50
2018-03-02T12:22:30.734Z,48
2018-03-02T12:23:33.459Z,47
2018-03-02T12:24:35.886Z,48
2018-03-02T12:25:38.591Z,49
2018-03-02T12:26:41.013Z,50
2018-03-02T12:27:43.736Z,49
2018-03-02T12:28:46.159Z,48
2018-03-02T12:29:48.582Z,49
2018-03-02T12:30:51.007Z,49
2018-03-02T12:31:53.423Z,49
2018-03-02T12:32:55.855Z,49
2018-03-02T12:33:58.582Z,49
2018-03-02T12:35:01.616Z,49
2018-03-02T12:36:04.031Z,49
2018-03-02T12:37:06.729Z,50
2018-03-02T12:38:09.151Z,49
2018-03-02T12:39:11.885Z,49
2018-03-02T12:40:14.314Z,50
2018-03-02T12:41:16.736Z,49
2018-03-02T12:42:19.443Z,49
2018-03-02T12:43:21.870Z,49
2018-03-02T12:44:24.298Z,49
2018-03-02T12:45:26.704Z,48
2018-03-02T12:46:29.144Z,48
2018-03-02T12:47:31.545Z,48
2018-03-02T12:48:34.258Z,48
2018-03-02T12:49:36.673Z,48
2018-03-02T12:50:39.096Z,49
2018-03-02T12:51:41.522Z,49
2018-03-02T12:52:43.946Z,49
2018-03-02T12:53:46.356Z,51
2018-03-02T12:54:49.361Z,50
2018-03-02T12:55:51.776Z,49
2018-03-02T12:56:54.504Z,48
2018-03-02T12:57:56.931Z,49
2018-03-02T12:58:59.353Z,49
2018-03-02T13:00:01.808Z,49
2018-03-02T13:01:04.527Z,49
2018-03-02T13:02:06.939Z,48
2018-03-02T13:03:09.366Z,49
2018-03-02T13:04:12.066Z,49
2018-03-02T13:05:14.783Z,48
2018-03-02T13:06:17.204Z,48
2018-03-02T13:07:20.208Z,47
2018-03-02T13:08:22.620Z,49
2018-03-02T13:09:25.048Z,48
2018-03-02T13:10:27.475Z,48
2018-03-02T13:11:29.907Z,47
2018-03-02T13:12:32.317Z,47
2018-03-02T13:13:35.025Z,47
2018-03-02T13:14:37.739Z,48
2018-03-02T13:15:40.167Z,48
2018-03-02T13:16:42.582Z,47
2018-03-02T13:17:45.010Z,47
2018-03-02T13:18:47.432Z,47
2018-03-02T13:19:49.851Z,48
2018-03-02T13:20:52.277Z,49
2018-03-02T13:21:54.694Z,48
2018-03-02T13:22:57.120Z,48
2018-03-02T13:23:59.567Z,48
2018-03-02T13:25:01.957Z,49
2018-03-02T13:26:04.385Z,49
2018-03-02T13:27:06.798Z,49
2018-03-02T13:28:09.230Z,48
2018-03-02T13:29:11.643Z,47
2018-03-02T13:30:14.123Z,48
2018-03-02T13:31:16.489Z,47
2018-03-02T13:32:18.911Z,47
2018-03-02T13:33:21.613Z,48
2018-03-02T13:34:24.342Z,48
2018-03-02T13:35:26.763Z,48
2018-03-02T13:36:29.176Z,49
2018-03-02T13:37:31.597Z,49
2018-03-02T13:38:34.014Z,49
2018-03-02T13:39:36.435Z,49
2018-03-02T13:40:38.861Z,49
2018-03-02T13:41:41.277Z,49
2018-03-02T13:42:43.697Z,49
2018-03-02T13:43:46.406Z,49
2018-03-02T13:44:49.114Z,49
2018-03-02T13:45:51.529Z,48
2018-03-02T13:46:54.245Z,48
2018-03-02T13:47:56.656Z,49
2018-03-02T13:48:59.067Z,49
2018-03-02T13:50:01.499Z,48
2018-03-02T13:51:04.200Z,48
2018-03-02T13:52:06.619Z,49
2018-03-02T13:53:09.056Z,48
2018-03-02T13:54:11.769Z,49
2018-03-02T13:55:14.195Z,49
2018-03-02T13:56:16.898Z,50
2018-03-02T13:57:19.324Z,50
2018-03-02T13:58:21.736Z,50
2018-03-02T13:59:24.161Z,50
2018-03-02T14:00:26.563Z,49
2018-03-02T14:01:28.986Z,49
2018-03-02T14:02:31.400Z,49
2018-03-02T14:03:33.816Z,50
2018-03-02T14:04:36.234Z,49
2018-03-02T14:05:38.653Z,49
2018-03-02T14:06:41.073Z,49
2018-03-02T14:07:43.505Z,51
2018-03-02T14:08:45.926Z,51
2018-03-02T14:09:48.338Z,51
2018-03-02T14:10:51.046Z,50
2018-03-02T14:11:53.467Z,51
2018-03-02T14:12:56.166Z,51
2018-03-02T14:13:58.576Z,51
2018-03-02T14:15:01.294Z,52
2018-03-02T14:16:03.712Z,52
2018-03-02T14:17:06.142Z,53
2018-03-02T14:18:08.849Z,53
2018-03-02T14:19:11.546Z,52
2018-03-02T14:20:13.964Z,52
2018-03-02T14:21:16.388Z,52
2018-03-02T14:22:18.809Z,52
2018-03-02T14:23:21.229Z,52
2018-03-02T14:24:23.631Z,53
2018-03-02T14:25:26.055Z,53
2018-03-02T14:26:28.772Z,51
2018-03-02T14:27:31.193Z,51
2018-03-02T14:28:33.616Z,51
2018-03-02T14:29:36.031Z,51
2018-03-02T14:30:38.449Z,51
2018-03-02T14:31:40.875Z,52
2018-03-02T14:32:43.289Z,51
2018-03-02T14:33:45.991Z,52
2018-03-02T14:34:48.702Z,52
2018-03-02T14:35:51.125Z,52
2018-03-02T14:36:53.549Z,52
2018-03-02T14:37:56.251Z,51
2018-03-02T14:38:58.676Z,52
2018-03-02T14:40:01.087Z,52
2018-03-02T14:41:03.500Z,53
2018-03-02T14:42:06.200Z,54
2018-03-02T14:43:08.919Z,53
2018-03-02T14:44:11.344Z,53
2018-03-02T14:45:13.754Z,54
2018-03-02T14:46:16.179Z,54
2018-03-02T14:47:18.638Z,54
2018-03-02T14:48:21.022Z,54
2018-03-02T14:49:23.446Z,55
2018-03-02T14:50:26.134Z,55